sensor_id;sensor_type;location;lat;lon;timestamp;P1;durP1;ratioP1;P2;durP2;ratioP2
23782;SDS011;12071;50.850;4.446;2023-07-28T00:00:37;4.75;;;4.05;;
23782;SDS011;12071;50.850;4.446;2023-07-28T00:03:02;4.40;;;3.97;;
23782;SDS011;12071;50.850;4.446;2023-07-28T00:05:28;7.53;;;3.90;;
23782;SDS011;12071;50.850;4.446;2023-07-28T00:07:53;4.30;;;3.90;;
23782;SDS011;12071;50.850;4.446;2023-07-28T00:10:19;6.28;;;4.30;;
23782;SDS011;12071;50.850;4.446;2023-07-28T00:12:44;4.32;;;3.92;;
23782;SDS011;12071;50.850;4.446;2023-07-28T00:15:10;6.20;;;4.50;;
23782;SDS011;12071;50.850;4.446;2023-07-28T00:17:36;5.05;;;4.35;;
23782;SDS011;12071;50.850;4.446;2023-07-28T00:20:01;6.38;;;4.50;;
23782;SDS011;12071;50.850;4.446;2023-07-28T00:22:27;6.85;;;4.10;;
23782;SDS011;12071;50.850;4.446;2023-07-28T00:24:53;5.75;;;4.43;;
23782;SDS011;12071;50.850;4.446;2023-07-28T00:27:18;4.72;;;4.32;;
23782;SDS011;12071;50.850;4.446;2023-07-28T00:29:44;5.22;;;4.25;;
23782;SDS011;12071;50.850;4.446;2023-07-28T00:32:10;5.85;;;4.57;;
23782;SDS011;12071;50.850;4.446;2023-07-28T00:34:35;5.65;;;4.28;;
23782;SDS011;12071;50.850;4.446;2023-07-28T00:37:01;5.25;;;4.07;;
23782;SDS011;12071;50.850;4.446;2023-07-28T00:39:26;5.05;;;3.97;;
23782;SDS011;12071;50.850;4.446;2023-07-28T00:41:52;5.53;;;4.20;;
23782;SDS011;12071;50.850;4.446;2023-07-28T00:44:17;5.25;;;4.57;;
23782;SDS011;12071;50.850;4.446;2023-07-28T00:46:44;5.05;;;4.30;;
23782;SDS011;12071;50.850;4.446;2023-07-28T00:49:10;6.20;;;4.50;;
23782;SDS011;12071;50.850;4.446;2023-07-28T00:51:36;5.90;;;4.95;;
23782;SDS011;12071;50.850;4.446;2023-07-28T00:54:02;7.47;;;5.13;;
23782;SDS011;12071;50.850;4.446;2023-07-28T00:56:30;6.20;;;5.20;;
23782;SDS011;12071;50.850;4.446;2023-07-28T00:58:55;6.57;;;4.93;;
23782;SDS011;12071;50.850;4.446;2023-07-28T01:01:21;8.90;;;4.78;;
23782;SDS011;12071;50.850;4.446;2023-07-28T01:03:47;8.27;;;5.38;;
23782;SDS011;12071;50.850;4.446;2023-07-28T01:06:26;6.70;;;5.55;;
23782;SDS011;12071;50.850;4.446;2023-07-28T01:09:02;8.13;;;5.38;;
23782;SDS011;12071;50.850;4.446;2023-07-28T01:11:30;7.15;;;5.25;;
23782;SDS011;12071;50.850;4.446;2023-07-28T01:13:55;10.43;;;5.85;;
23782;SDS011;12071;50.850;4.446;2023-07-28T01:16:21;10.27;;;6.43;;
23782;SDS011;12071;50.850;4.446;2023-07-28T01:18:47;7.20;;;5.88;;
23782;SDS011;12071;50.850;4.446;2023-07-28T01:21:17;8.27;;;6.65;;
23782;SDS011;12071;50.850;4.446;2023-07-28T01:26:31;9.95;;;6.13;;
23782;SDS011;12071;50.850;4.446;2023-07-28T01:29:01;7.97;;;5.57;;
23782;SDS011;12071;50.850;4.446;2023-07-28T01:31:28;9.02;;;6.03;;
23782;SDS011;12071;50.850;4.446;2023-07-28T01:33:54;7.97;;;6.18;;
23782;SDS011;12071;50.850;4.446;2023-07-28T01:36:20;10.35;;;6.32;;
23782;SDS011;12071;50.850;4.446;2023-07-28T01:38:45;7.07;;;5.85;;
23782;SDS011;12071;50.850;4.446;2023-07-28T01:41:11;8.93;;;6.30;;
23782;SDS011;12071;50.850;4.446;2023-07-28T01:43:37;8.90;;;6.82;;
23782;SDS011;12071;50.850;4.446;2023-07-28T01:46:02;10.52;;;6.47;;
23782;SDS011;12071;50.850;4.446;2023-07-28T01:48:28;12.77;;;7.05;;
23782;SDS011;12071;50.850;4.446;2023-07-28T01:50:53;8.75;;;6.90;;
23782;SDS011;12071;50.850;4.446;2023-07-28T01:53:19;9.27;;;6.85;;
23782;SDS011;12071;50.850;4.446;2023-07-28T01:55:45;11.77;;;6.60;;
23782;SDS011;12071;50.850;4.446;2023-07-28T01:58:10;10.43;;;6.75;;
23782;SDS011;12071;50.850;4.446;2023-07-28T02:00:36;10.77;;;7.00;;
23782;SDS011;12071;50.850;4.446;2023-07-28T02:03:02;10.32;;;6.97;;
23782;SDS011;12071;50.850;4.446;2023-07-28T02:05:28;13.27;;;7.10;;
23782;SDS011;12071;50.850;4.446;2023-07-28T02:07:55;9.02;;;6.88;;
23782;SDS011;12071;50.850;4.446;2023-07-28T02:10:22;13.98;;;7.88;;
23782;SDS011;12071;50.850;4.446;2023-07-28T02:12:48;13.02;;;8.15;;
23782;SDS011;12071;50.850;4.446;2023-07-28T02:15:14;14.10;;;8.45;;
23782;SDS011;12071;50.850;4.446;2023-07-28T02:17:40;13.77;;;8.82;;
23782;SDS011;12071;50.850;4.446;2023-07-28T02:20:05;15.48;;;9.23;;
23782;SDS011;12071;50.850;4.446;2023-07-28T02:22:34;13.85;;;8.55;;
23782;SDS011;12071;50.850;4.446;2023-07-28T02:25:00;12.77;;;8.45;;
23782;SDS011;12071;50.850;4.446;2023-07-28T02:27:27;14.57;;;9.23;;
23782;SDS011;12071;50.850;4.446;2023-07-28T02:29:52;18.45;;;9.13;;
23782;SDS011;12071;50.850;4.446;2023-07-28T02:32:18;12.95;;;8.57;;
23782;SDS011;12071;50.850;4.446;2023-07-28T02:34:44;14.13;;;8.63;;
23782;SDS011;12071;50.850;4.446;2023-07-28T02:37:09;13.25;;;8.75;;
23782;SDS011;12071;50.850;4.446;2023-07-28T02:39:35;13.35;;;8.38;;
23782;SDS011;12071;50.850;4.446;2023-07-28T02:42:00;14.63;;;8.25;;
23782;SDS011;12071;50.850;4.446;2023-07-28T02:44:26;15.40;;;8.40;;
23782;SDS011;12071;50.850;4.446;2023-07-28T02:46:52;16.33;;;7.82;;
23782;SDS011;12071;50.850;4.446;2023-07-28T02:49:18;17.08;;;7.63;;
23782;SDS011;12071;50.850;4.446;2023-07-28T02:51:43;13.60;;;7.95;;
23782;SDS011;12071;50.850;4.446;2023-07-28T02:54:09;13.07;;;7.75;;
23782;SDS011;12071;50.850;4.446;2023-07-28T02:56:34;15.15;;;7.47;;
23782;SDS011;12071;50.850;4.446;2023-07-28T02:59:03;13.38;;;7.90;;
23782;SDS011;12071;50.850;4.446;2023-07-28T03:01:29;12.18;;;7.43;;
23782;SDS011;12071;50.850;4.446;2023-07-28T03:03:58;12.68;;;8.00;;
23782;SDS011;12071;50.850;4.446;2023-07-28T03:06:27;13.02;;;8.05;;
23782;SDS011;12071;50.850;4.446;2023-07-28T03:08:53;11.07;;;7.50;;
23782;SDS011;12071;50.850;4.446;2023-07-28T03:11:19;11.60;;;7.05;;
23782;SDS011;12071;50.850;4.446;2023-07-28T03:13:44;9.38;;;7.05;;
23782;SDS011;12071;50.850;4.446;2023-07-28T03:16:10;10.65;;;7.53;;
23782;SDS011;12071;50.850;4.446;2023-07-28T03:18:35;12.32;;;7.40;;
23782;SDS011;12071;50.850;4.446;2023-07-28T03:21:01;14.60;;;7.38;;
23782;SDS011;12071;50.850;4.446;2023-07-28T03:23:27;10.75;;;7.88;;
23782;SDS011;12071;50.850;4.446;2023-07-28T03:25:52;10.07;;;7.53;;
23782;SDS011;12071;50.850;4.446;2023-07-28T03:28:18;21.20;;;8.15;;
23782;SDS011;12071;50.850;4.446;2023-07-28T03:30:44;11.02;;;7.60;;
23782;SDS011;12071;50.850;4.446;2023-07-28T03:33:09;11.13;;;7.80;;
23782;SDS011;12071;50.850;4.446;2023-07-28T03:35:35;10.10;;;7.43;;
23782;SDS011;12071;50.850;4.446;2023-07-28T03:38:01;8.75;;;6.85;;
23782;SDS011;12071;50.850;4.446;2023-07-28T03:40:26;12.50;;;7.40;;
23782;SDS011;12071;50.850;4.446;2023-07-28T03:42:52;12.73;;;7.75;;
23782;SDS011;12071;50.850;4.446;2023-07-28T03:45:18;9.15;;;7.15;;
23782;SDS011;12071;50.850;4.446;2023-07-28T03:47:44;11.70;;;6.50;;
23782;SDS011;12071;50.850;4.446;2023-07-28T03:50:09;11.30;;;7.25;;
23782;SDS011;12071;50.850;4.446;2023-07-28T03:52:35;11.10;;;6.07;;
23782;SDS011;12071;50.850;4.446;2023-07-28T03:55:01;6.68;;;5.97;;
23782;SDS011;12071;50.850;4.446;2023-07-28T03:57:26;11.75;;;5.90;;
23782;SDS011;12071;50.850;4.446;2023-07-28T03:59:52;7.93;;;5.78;;
23782;SDS011;12071;50.850;4.446;2023-07-28T04:02:18;7.88;;;5.82;;
23782;SDS011;12071;50.850;4.446;2023-07-28T04:04:43;7.57;;;5.93;;
23782;SDS011;12071;50.850;4.446;2023-07-28T04:07:09;11.98;;;6.15;;
23782;SDS011;12071;50.850;4.446;2023-07-28T04:09:34;8.13;;;5.97;;
23782;SDS011;12071;50.850;4.446;2023-07-28T04:12:00;11.45;;;5.80;;
23782;SDS011;12071;50.850;4.446;2023-07-28T04:14:26;11.38;;;5.97;;
23782;SDS011;12071;50.850;4.446;2023-07-28T04:16:51;9.35;;;5.88;;
23782;SDS011;12071;50.850;4.446;2023-07-28T04:19:17;7.18;;;6.15;;
23782;SDS011;12071;50.850;4.446;2023-07-28T04:21:42;6.78;;;5.60;;
23782;SDS011;12071;50.850;4.446;2023-07-28T04:24:08;7.35;;;5.50;;
23782;SDS011;12071;50.850;4.446;2023-07-28T04:26:34;6.88;;;4.88;;
23782;SDS011;12071;50.850;4.446;2023-07-28T04:29:00;8.82;;;5.72;;
23782;SDS011;12071;50.850;4.446;2023-07-28T04:31:26;10.15;;;5.20;;
23782;SDS011;12071;50.850;4.446;2023-07-28T04:33:51;10.82;;;4.95;;
23782;SDS011;12071;50.850;4.446;2023-07-28T04:36:17;7.25;;;4.60;;
23782;SDS011;12071;50.850;4.446;2023-07-28T04:38:43;5.70;;;4.78;;
23782;SDS011;12071;50.850;4.446;2023-07-28T04:41:08;8.52;;;4.50;;
23782;SDS011;12071;50.850;4.446;2023-07-28T04:43:34;7.35;;;4.22;;
23782;SDS011;12071;50.850;4.446;2023-07-28T04:45:59;7.63;;;4.90;;
23782;SDS011;12071;50.850;4.446;2023-07-28T04:48:26;12.63;;;4.78;;
23782;SDS011;12071;50.850;4.446;2023-07-28T04:50:51;7.13;;;4.20;;
23782;SDS011;12071;50.850;4.446;2023-07-28T04:53:17;4.75;;;4.10;;
23782;SDS011;12071;50.850;4.446;2023-07-28T04:55:43;5.20;;;3.78;;
23782;SDS011;12071;50.850;4.446;2023-07-28T04:58:08;8.82;;;3.75;;
23782;SDS011;12071;50.850;4.446;2023-07-28T05:00:34;5.95;;;3.88;;
23782;SDS011;12071;50.850;4.446;2023-07-28T05:02:59;7.15;;;3.97;;
23782;SDS011;12071;50.850;4.446;2023-07-28T05:05:25;5.20;;;3.53;;
23782;SDS011;12071;50.850;4.446;2023-07-28T05:07:51;5.25;;;3.78;;
23782;SDS011;12071;50.850;4.446;2023-07-28T05:10:16;4.95;;;3.50;;
23782;SDS011;12071;50.850;4.446;2023-07-28T05:12:42;5.60;;;3.70;;
23782;SDS011;12071;50.850;4.446;2023-07-28T05:15:08;3.22;;;2.67;;
23782;SDS011;12071;50.850;4.446;2023-07-28T05:17:35;5.47;;;3.10;;
23782;SDS011;12071;50.850;4.446;2023-07-28T05:20:01;3.90;;;2.92;;
23782;SDS011;12071;50.850;4.446;2023-07-28T05:22:29;5.35;;;3.22;;
23782;SDS011;12071;50.850;4.446;2023-07-28T05:24:54;6.63;;;3.22;;
23782;SDS011;12071;50.850;4.446;2023-07-28T05:27:20;3.58;;;3.28;;
23782;SDS011;12071;50.850;4.446;2023-07-28T05:29:45;4.63;;;2.90;;
23782;SDS011;12071;50.850;4.446;2023-07-28T05:32:11;6.88;;;3.13;;
23782;SDS011;12071;50.850;4.446;2023-07-28T05:34:36;3.50;;;2.88;;
23782;SDS011;12071;50.850;4.446;2023-07-28T05:37:02;4.60;;;3.17;;
23782;SDS011;12071;50.850;4.446;2023-07-28T05:39:28;5.90;;;3.05;;
23782;SDS011;12071;50.850;4.446;2023-07-28T05:41:53;2.78;;;2.53;;
23782;SDS011;12071;50.850;4.446;2023-07-28T05:44:19;4.82;;;2.78;;
23782;SDS011;12071;50.850;4.446;2023-07-28T05:46:45;2.95;;;2.38;;
23782;SDS011;12071;50.850;4.446;2023-07-28T05:49:13;5.43;;;2.35;;
23782;SDS011;12071;50.850;4.446;2023-07-28T05:51:39;3.03;;;2.33;;
23782;SDS011;12071;50.850;4.446;2023-07-28T05:54:04;2.85;;;2.30;;
23782;SDS011;12071;50.850;4.446;2023-07-28T05:56:30;2.50;;;1.60;;
23782;SDS011;12071;50.850;4.446;2023-07-28T05:58:55;3.88;;;1.90;;
23782;SDS011;12071;50.850;4.446;2023-07-28T06:01:22;3.55;;;1.45;;
23782;SDS011;12071;50.850;4.446;2023-07-28T06:03:47;3.10;;;1.63;;
23782;SDS011;12071;50.850;4.446;2023-07-28T06:06:13;2.40;;;1.15;;
23782;SDS011;12071;50.850;4.446;2023-07-28T06:08:38;1.48;;;1.38;;
23782;SDS011;12071;50.850;4.446;2023-07-28T06:11:05;1.60;;;1.15;;
23782;SDS011;12071;50.850;4.446;2023-07-28T06:13:31;2.58;;;1.40;;
23782;SDS011;12071;50.850;4.446;2023-07-28T06:15:57;3.35;;;1.58;;
23782;SDS011;12071;50.850;4.446;2023-07-28T06:18:23;2.53;;;1.42;;
23782;SDS011;12071;50.850;4.446;2023-07-28T06:20:49;1.95;;;1.80;;
23782;SDS011;12071;50.850;4.446;2023-07-28T06:23:15;2.15;;;1.77;;
23782;SDS011;12071;50.850;4.446;2023-07-28T06:25:41;3.85;;;2.40;;
23782;SDS011;12071;50.850;4.446;2023-07-28T06:28:10;3.13;;;2.40;;
23782;SDS011;12071;50.850;4.446;2023-07-28T06:30:37;5.40;;;2.40;;
23782;SDS011;12071;50.850;4.446;2023-07-28T06:33:05;3.53;;;2.65;;
23782;SDS011;12071;50.850;4.446;2023-07-28T06:35:31;2.83;;;2.60;;
23782;SDS011;12071;50.850;4.446;2023-07-28T06:37:57;3.35;;;2.40;;
23782;SDS011;12071;50.850;4.446;2023-07-28T06:40:23;2.25;;;1.80;;
23782;SDS011;12071;50.850;4.446;2023-07-28T06:42:48;2.17;;;1.60;;
23782;SDS011;12071;50.850;4.446;2023-07-28T06:45:14;3.90;;;1.73;;
23782;SDS011;12071;50.850;4.446;2023-07-28T06:47:39;2.47;;;1.50;;
23782;SDS011;12071;50.850;4.446;2023-07-28T06:50:05;6.70;;;1.70;;
23782;SDS011;12071;50.850;4.446;2023-07-28T06:52:31;2.08;;;1.33;;
23782;SDS011;12071;50.850;4.446;2023-07-28T06:54:57;1.00;;;1.00;;
23782;SDS011;12071;50.850;4.446;2023-07-28T06:57:22;2.33;;;1.30;;
23782;SDS011;12071;50.850;4.446;2023-07-28T06:59:48;1.33;;;0.73;;
23782;SDS011;12071;50.850;4.446;2023-07-28T07:02:14;0.85;;;0.85;;
23782;SDS011;12071;50.850;4.446;2023-07-28T07:04:40;0.93;;;0.88;;
23782;SDS011;12071;50.850;4.446;2023-07-28T07:07:06;2.08;;;0.63;;
23782;SDS011;12071;50.850;4.446;2023-07-28T07:09:32;0.85;;;0.55;;
23782;SDS011;12071;50.850;4.446;2023-07-28T07:11:57;0.65;;;0.60;;
23782;SDS011;12071;50.850;4.446;2023-07-28T07:14:23;0.75;;;0.40;;
23782;SDS011;12071;50.850;4.446;2023-07-28T07:16:48;0.35;;;0.32;;
23782;SDS011;12071;50.850;4.446;2023-07-28T07:19:14;0.52;;;0.52;;
23782;SDS011;12071;50.850;4.446;2023-07-28T07:21:40;0.93;;;0.50;;
23782;SDS011;12071;50.850;4.446;2023-07-28T07:24:06;0.50;;;0.50;;
23782;SDS011;12071;50.850;4.446;2023-07-28T07:26:32;0.70;;;0.50;;
23782;SDS011;12071;50.850;4.446;2023-07-28T07:28:58;0.98;;;0.40;;
23782;SDS011;12071;50.850;4.446;2023-07-28T07:31:23;0.70;;;0.70;;
23782;SDS011;12071;50.850;4.446;2023-07-28T07:33:50;0.80;;;0.65;;
23782;SDS011;12071;50.850;4.446;2023-07-28T07:36:16;1.17;;;0.50;;
23782;SDS011;12071;50.850;4.446;2023-07-28T07:38:43;0.55;;;0.50;;
23782;SDS011;12071;50.850;4.446;2023-07-28T07:41:12;1.15;;;0.40;;
23782;SDS011;12071;50.850;4.446;2023-07-28T07:43:44;0.73;;;0.60;;
23782;SDS011;12071;50.850;4.446;2023-07-28T07:46:10;1.00;;;0.70;;
23782;SDS011;12071;50.850;4.446;2023-07-28T07:48:35;0.77;;;0.77;;
23782;SDS011;12071;50.850;4.446;2023-07-28T07:51:01;1.38;;;1.00;;
23782;SDS011;12071;50.850;4.446;2023-07-28T07:53:27;1.63;;;1.27;;
23782;SDS011;12071;50.850;4.446;2023-07-28T07:55:52;2.03;;;1.38;;
23782;SDS011;12071;50.850;4.446;2023-07-28T07:58:18;1.48;;;1.25;;
23782;SDS011;12071;50.850;4.446;2023-07-28T08:00:43;1.67;;;1.27;;
23782;SDS011;12071;50.850;4.446;2023-07-28T08:03:09;4.30;;;1.50;;
23782;SDS011;12071;50.850;4.446;2023-07-28T08:05:35;2.72;;;1.52;;
23782;SDS011;12071;50.850;4.446;2023-07-28T08:08:00;1.98;;;1.55;;
23782;SDS011;12071;50.850;4.446;2023-07-28T08:10:26;3.42;;;1.95;;
23782;SDS011;12071;50.850;4.446;2023-07-28T08:12:52;1.70;;;1.60;;
23782;SDS011;12071;50.850;4.446;2023-07-28T08:15:18;2.15;;;1.77;;
23782;SDS011;12071;50.850;4.446;2023-07-28T08:17:43;2.67;;;1.65;;
23782;SDS011;12071;50.850;4.446;2023-07-28T08:20:10;1.67;;;1.15;;
23782;SDS011;12071;50.850;4.446;2023-07-28T08:22:35;2.42;;;1.48;;
23782;SDS011;12071;50.850;4.446;2023-07-28T08:25:01;2.25;;;1.67;;
23782;SDS011;12071;50.850;4.446;2023-07-28T08:27:26;3.38;;;1.23;;
23782;SDS011;12071;50.850;4.446;2023-07-28T08:29:52;1.27;;;1.00;;
23782;SDS011;12071;50.850;4.446;2023-07-28T08:32:18;1.65;;;1.00;;
23782;SDS011;12071;50.850;4.446;2023-07-28T08:34:43;2.70;;;1.20;;
23782;SDS011;12071;50.850;4.446;2023-07-28T08:37:09;1.20;;;0.90;;
23782;SDS011;12071;50.850;4.446;2023-07-28T08:39:34;1.30;;;1.00;;
23782;SDS011;12071;50.850;4.446;2023-07-28T08:42:00;1.10;;;0.98;;
23782;SDS011;12071;50.850;4.446;2023-07-28T08:44:30;1.30;;;0.95;;
23782;SDS011;12071;50.850;4.446;2023-07-28T08:46:58;1.65;;;1.15;;
23782;SDS011;12071;50.850;4.446;2023-07-28T08:49:31;3.05;;;0.98;;
23782;SDS011;12071;50.850;4.446;2023-07-28T08:52:00;3.25;;;1.15;;
23782;SDS011;12071;50.850;4.446;2023-07-28T08:54:26;2.60;;;1.33;;
23782;SDS011;12071;50.850;4.446;2023-07-28T08:56:52;1.05;;;0.90;;
23782;SDS011;12071;50.850;4.446;2023-07-28T08:59:24;1.20;;;1.10;;
23782;SDS011;12071;50.850;4.446;2023-07-28T09:01:56;0.98;;;0.85;;
23782;SDS011;12071;50.850;4.446;2023-07-28T09:04:24;2.55;;;1.10;;
23782;SDS011;12071;50.850;4.446;2023-07-28T09:06:50;1.27;;;1.00;;
23782;SDS011;12071;50.850;4.446;2023-07-28T09:09:18;2.15;;;1.30;;
23782;SDS011;12071;50.850;4.446;2023-07-28T09:11:48;1.83;;;1.00;;
23782;SDS011;12071;50.850;4.446;2023-07-28T09:14:15;1.02;;;0.88;;
23782;SDS011;12071;50.850;4.446;2023-07-28T09:16:42;1.13;;;0.70;;
23782;SDS011;12071;50.850;4.446;2023-07-28T09:19:08;1.80;;;0.90;;
23782;SDS011;12071;50.850;4.446;2023-07-28T09:21:35;1.35;;;0.70;;
23782;SDS011;12071;50.850;4.446;2023-07-28T09:24:05;0.85;;;0.68;;
23782;SDS011;12071;50.850;4.446;2023-07-28T09:29:17;2.05;;;0.80;;
23782;SDS011;12071;50.850;4.446;2023-07-28T09:31:48;1.85;;;0.65;;
23782;SDS011;12071;50.850;4.446;2023-07-28T09:34:27;1.37;;;0.70;;
23782;SDS011;12071;50.850;4.446;2023-07-28T09:36:53;1.52;;;1.00;;
23782;SDS011;12071;50.850;4.446;2023-07-28T09:39:20;2.42;;;0.73;;
23782;SDS011;12071;50.850;4.446;2023-07-28T09:41:46;1.55;;;0.90;;
23782;SDS011;12071;50.850;4.446;2023-07-28T09:44:12;1.90;;;0.90;;
23782;SDS011;12071;50.850;4.446;2023-07-28T09:46:46;1.40;;;0.90;;
23782;SDS011;12071;50.850;4.446;2023-07-28T09:49:14;1.65;;;0.90;;
23782;SDS011;12071;50.850;4.446;2023-07-28T09:51:45;1.90;;;0.90;;
23782;SDS011;12071;50.850;4.446;2023-07-28T09:54:18;2.00;;;0.98;;
23782;SDS011;12071;50.850;4.446;2023-07-28T09:56:57;1.30;;;0.95;;
23782;SDS011;12071;50.850;4.446;2023-07-28T09:59:24;1.38;;;1.10;;
23782;SDS011;12071;50.850;4.446;2023-07-28T10:01:55;2.70;;;1.50;;
23782;SDS011;12071;50.850;4.446;2023-07-28T10:04:23;1.33;;;1.20;;
23782;SDS011;12071;50.850;4.446;2023-07-28T10:06:49;2.05;;;1.27;;
23782;SDS011;12071;50.850;4.446;2023-07-28T10:09:21;1.38;;;1.27;;
23782;SDS011;12071;50.850;4.446;2023-07-28T10:11:50;2.58;;;1.40;;
23782;SDS011;12071;50.850;4.446;2023-07-28T10:14:26;2.50;;;1.50;;
23782;SDS011;12071;50.850;4.446;2023-07-28T10:16:57;1.55;;;1.45;;
23782;SDS011;12071;50.850;4.446;2023-07-28T10:19:26;1.60;;;1.50;;
23782;SDS011;12071;50.850;4.446;2023-07-28T10:22:02;2.30;;;1.65;;
23782;SDS011;12071;50.850;4.446;2023-07-28T10:24:49;2.22;;;1.58;;
23782;SDS011;12071;50.850;4.446;2023-07-28T10:27:30;4.70;;;1.60;;
23782;SDS011;12071;50.850;4.446;2023-07-28T10:29:59;2.33;;;1.65;;
23782;SDS011;12071;50.850;4.446;2023-07-28T10:32:26;2.47;;;2.00;;
23782;SDS011;12071;50.850;4.446;2023-07-28T10:35:00;3.50;;;1.77;;
23782;SDS011;12071;50.850;4.446;2023-07-28T10:37:27;2.17;;;2.08;;
23782;SDS011;12071;50.850;4.446;2023-07-28T10:40:21;2.78;;;2.10;;
23782;SDS011;12071;50.850;4.446;2023-07-28T10:42:49;3.00;;;2.05;;
23782;SDS011;12071;50.850;4.446;2023-07-28T10:45:15;2.53;;;2.33;;
23782;SDS011;12071;50.850;4.446;2023-07-28T10:47:41;3.35;;;2.90;;
23782;SDS011;12071;50.850;4.446;2023-07-28T10:50:11;5.22;;;2.60;;
23782;SDS011;12071;50.850;4.446;2023-07-28T10:52:43;5.03;;;3.05;;
23782;SDS011;12071;50.850;4.446;2023-07-28T10:57:44;5.13;;;3.00;;
23782;SDS011;12071;50.850;4.446;2023-07-28T11:00:11;3.47;;;3.17;;
23782;SDS011;12071;50.850;4.446;2023-07-28T11:02:41;3.97;;;2.83;;
23782;SDS011;12071;50.850;4.446;2023-07-28T11:05:11;4.47;;;3.67;;
23782;SDS011;12071;50.850;4.446;2023-07-28T11:07:45;4.10;;;3.28;;
23782;SDS011;12071;50.850;4.446;2023-07-28T11:10:11;4.50;;;3.60;;
23782;SDS011;12071;50.850;4.446;2023-07-28T11:12:41;3.40;;;3.10;;
23782;SDS011;12071;50.850;4.446;2023-07-28T11:15:08;4.28;;;3.58;;
23782;SDS011;12071;50.850;4.446;2023-07-28T11:17:36;4.28;;;3.45;;
23782;SDS011;12071;50.850;4.446;2023-07-28T11:20:04;3.92;;;3.60;;
23782;SDS011;12071;50.850;4.446;2023-07-28T11:22:39;3.40;;;3.10;;
23782;SDS011;12071;50.850;4.446;2023-07-28T11:25:05;4.13;;;3.22;;
23782;SDS011;12071;50.850;4.446;2023-07-28T11:27:34;3.38;;;3.08;;
23782;SDS011;12071;50.850;4.446;2023-07-28T11:30:03;4.10;;;3.25;;
23782;SDS011;12071;50.850;4.446;2023-07-28T11:32:33;4.07;;;3.15;;
23782;SDS011;12071;50.850;4.446;2023-07-28T11:35:03;3.85;;;2.90;;
23782;SDS011;12071;50.850;4.446;2023-07-28T11:37:30;3.40;;;2.97;;
23782;SDS011;12071;50.850;4.446;2023-07-28T11:39:58;2.97;;;2.33;;
23782;SDS011;12071;50.850;4.446;2023-07-28T11:42:26;5.97;;;2.65;;
23782;SDS011;12071;50.850;4.446;2023-07-28T11:44:53;2.75;;;2.45;;
23782;SDS011;12071;50.850;4.446;2023-07-28T11:47:19;2.30;;;2.10;;
23782;SDS011;12071;50.850;4.446;2023-07-28T11:49:46;3.28;;;2.30;;
23782;SDS011;12071;50.850;4.446;2023-07-28T11:52:12;3.80;;;2.47;;
23782;SDS011;12071;50.850;4.446;2023-07-28T11:54:38;2.45;;;2.10;;
23782;SDS011;12071;50.850;4.446;2023-07-28T11:57:03;2.38;;;2.17;;
23782;SDS011;12071;50.850;4.446;2023-07-28T11:59:34;2.13;;;1.92;;
23782;SDS011;12071;50.850;4.446;2023-07-28T12:02:01;2.80;;;2.20;;
23782;SDS011;12071;50.850;4.446;2023-07-28T12:04:28;2.80;;;2.00;;
23782;SDS011;12071;50.850;4.446;2023-07-28T12:07:05;3.55;;;2.15;;
23782;SDS011;12071;50.850;4.446;2023-07-28T12:12:18;2.55;;;2.10;;
23782;SDS011;12071;50.850;4.446;2023-07-28T12:17:15;3.22;;;2.10;;
23782;SDS011;12071;50.850;4.446;2023-07-28T12:19:58;1.73;;;1.60;;
23782;SDS011;12071;50.850;4.446;2023-07-28T12:22:40;3.63;;;1.80;;
23782;SDS011;12071;50.850;4.446;2023-07-28T12:25:06;3.38;;;1.50;;
23782;SDS011;12071;50.850;4.446;2023-07-28T12:27:32;2.38;;;1.67;;
23782;SDS011;12071;50.850;4.446;2023-07-28T12:29:59;2.45;;;1.23;;
23782;SDS011;12071;50.850;4.446;2023-07-28T12:32:25;1.52;;;1.40;;
23782;SDS011;12071;50.850;4.446;2023-07-28T12:34:51;2.20;;;1.50;;
23782;SDS011;12071;50.850;4.446;2023-07-28T12:37:17;2.50;;;1.48;;
23782;SDS011;12071;50.850;4.446;2023-07-28T12:39:43;1.65;;;1.20;;
23782;SDS011;12071;50.850;4.446;2023-07-28T12:42:09;1.65;;;1.40;;
23782;SDS011;12071;50.850;4.446;2023-07-28T12:44:36;2.08;;;1.20;;
23782;SDS011;12071;50.850;4.446;2023-07-28T12:47:03;3.60;;;1.50;;
23782;SDS011;12071;50.850;4.446;2023-07-28T12:49:29;2.85;;;1.40;;
23782;SDS011;12071;50.850;4.446;2023-07-28T12:51:58;2.30;;;1.33;;
23782;SDS011;12071;50.850;4.446;2023-07-28T12:54:24;6.15;;;1.60;;
23782;SDS011;12071;50.850;4.446;2023-07-28T12:56:50;1.65;;;1.20;;
23782;SDS011;12071;50.850;4.446;2023-07-28T12:59:17;1.98;;;1.30;;
23782;SDS011;12071;50.850;4.446;2023-07-28T13:01:42;1.40;;;1.25;;
23782;SDS011;12071;50.850;4.446;2023-07-28T13:04:08;1.50;;;1.10;;
23782;SDS011;12071;50.850;4.446;2023-07-28T13:06:33;3.42;;;1.45;;
23782;SDS011;12071;50.850;4.446;2023-07-28T13:08:59;2.10;;;1.20;;
23782;SDS011;12071;50.850;4.446;2023-07-28T13:11:25;1.33;;;0.90;;
23782;SDS011;12071;50.850;4.446;2023-07-28T13:13:50;1.60;;;1.30;;
23782;SDS011;12071;50.850;4.446;2023-07-28T13:16:16;2.33;;;1.20;;
23782;SDS011;12071;50.850;4.446;2023-07-28T13:18:42;3.35;;;1.35;;
23782;SDS011;12071;50.850;4.446;2023-07-28T13:21:08;4.53;;;1.10;;
23782;SDS011;12071;50.850;4.446;2023-07-28T13:23:36;1.63;;;1.52;;
23782;SDS011;12071;50.850;4.446;2023-07-28T13:26:02;2.55;;;1.20;;
23782;SDS011;12071;50.850;4.446;2023-07-28T13:28:31;1.70;;;1.33;;
23782;SDS011;12071;50.850;4.446;2023-07-28T13:30:57;1.75;;;1.00;;
23782;SDS011;12071;50.850;4.446;2023-07-28T13:33:23;1.98;;;1.33;;
23782;SDS011;12071;50.850;4.446;2023-07-28T13:35:48;2.85;;;1.10;;
23782;SDS011;12071;50.850;4.446;2023-07-28T13:38:14;1.13;;;1.02;;
23782;SDS011;12071;50.850;4.446;2023-07-28T13:40:39;2.25;;;1.13;;
23782;SDS011;12071;50.850;4.446;2023-07-28T13:43:05;1.58;;;1.10;;
23782;SDS011;12071;50.850;4.446;2023-07-28T13:45:31;1.20;;;1.10;;
23782;SDS011;12071;50.850;4.446;2023-07-28T13:47:56;4.45;;;1.00;;
23782;SDS011;12071;50.850;4.446;2023-07-28T13:50:22;1.80;;;1.08;;
23782;SDS011;12071;50.850;4.446;2023-07-28T13:52:48;1.98;;;1.30;;
23782;SDS011;12071;50.850;4.446;2023-07-28T13:55:14;2.17;;;1.10;;
23782;SDS011;12071;50.850;4.446;2023-07-28T13:57:40;1.52;;;1.42;;
23782;SDS011;12071;50.850;4.446;2023-07-28T14:00:06;1.90;;;1.15;;
23782;SDS011;12071;50.850;4.446;2023-07-28T14:02:34;2.83;;;1.20;;
23782;SDS011;12071;50.850;4.446;2023-07-28T14:05:01;1.52;;;1.00;;
23782;SDS011;12071;50.850;4.446;2023-07-28T14:07:26;1.33;;;0.98;;
23782;SDS011;12071;50.850;4.446;2023-07-28T14:09:52;1.10;;;0.85;;
23782;SDS011;12071;50.850;4.446;2023-07-28T14:12:18;1.00;;;0.90;;
23782;SDS011;12071;50.850;4.446;2023-07-28T14:14:43;1.30;;;1.10;;
23782;SDS011;12071;50.850;4.446;2023-07-28T14:17:09;1.90;;;1.08;;
23782;SDS011;12071;50.850;4.446;2023-07-28T14:19:36;1.90;;;1.20;;
23782;SDS011;12071;50.850;4.446;2023-07-28T14:22:03;1.23;;;0.93;;
23782;SDS011;12071;50.850;4.446;2023-07-28T14:24:28;2.97;;;0.93;;
23782;SDS011;12071;50.850;4.446;2023-07-28T14:26:54;3.03;;;0.93;;
23782;SDS011;12071;50.850;4.446;2023-07-28T14:29:20;1.73;;;1.02;;
23782;SDS011;12071;50.850;4.446;2023-07-28T14:31:46;2.08;;;0.93;;
23782;SDS011;12071;50.850;4.446;2023-07-28T14:34:11;1.88;;;1.30;;
23782;SDS011;12071;50.850;4.446;2023-07-28T14:36:38;1.05;;;0.95;;
23782;SDS011;12071;50.850;4.446;2023-07-28T14:39:04;1.88;;;1.00;;
23782;SDS011;12071;50.850;4.446;2023-07-28T14:41:29;1.83;;;1.00;;
23782;SDS011;12071;50.850;4.446;2023-07-28T14:43:55;1.83;;;1.20;;
23782;SDS011;12071;50.850;4.446;2023-07-28T14:46:21;1.88;;;1.10;;
23782;SDS011;12071;50.850;4.446;2023-07-28T14:48:47;2.15;;;1.05;;
23782;SDS011;12071;50.850;4.446;2023-07-28T14:51:15;2.33;;;1.20;;
23782;SDS011;12071;50.850;4.446;2023-07-28T14:53:40;1.38;;;1.08;;
23782;SDS011;12071;50.850;4.446;2023-07-28T14:56:07;1.38;;;1.25;;